Time;durP1;ratioP1;P1;durP2;ratioP2;P2;SDS_P1;SDS_P2;PMS_P1;PMS_P2;Temp;Humidity;BMP_temperature;BMP_pressure;BME280_temperature;BME280_humidity;BME280_pressure;Samples;Min_cycle;Max_cycle;Signal;HPM_P1;HPM_P2
2022/04/13 00:01:47;;;;;;;2.70;1.80;;;22.30;51.40;;;;;;5034083;28;20442;-82
2022/04/13 00:04:23;;;;;;;2.90;1.60;;;22.30;51.40;;;;;;5017316;28;20432;-82
2022/04/13 00:07:04;;;;;;;2.53;1.60;;;22.30;51.40;;;;;;5016366;28;20442;-81
2022/04/13 00:09:33;;;;;;;3.27;1.70;;;22.30;51.40;;;;;;5015622;28;20471;-81
2022/04/13 00:15:21;;;;;;;2.63;1.20;;;22.30;51.40;;;;;;5031530;28;20479;-81
2022/04/13 00:17:53;;;;;;;2.30;1.87;;;22.20;51.40;;;;;;5016385;28;20415;-81
2022/04/13 00:20:21;;;;;;;2.53;1.67;;;22.20;51.40;;;;;;5021178;28;20479;-81
2022/04/13 00:22:50;;;;;;;3.23;1.70;;;22.20;51.40;;;;;;5019495;28;20434;-82
2022/04/13 00:25:17;;;;;;;2.83;1.73;;;22.20;51.40;;;;;;5018908;28;20428;-82
2022/04/13 00:27:43;;;;;;;2.90;1.80;;;22.20;51.40;;;;;;5000537;28;20427;-82
2022/04/13 00:30:10;;;;;;;2.20;1.40;;;22.20;51.40;;;;;;5020633;28;20458;-82
2022/04/13 00:32:36;;;;;;;2.67;1.37;;;22.20;51.40;;;;;;5018450;28;20435;-81
2022/04/13 00:35:05;;;;;;;1.80;1.30;;;22.30;51.40;;;;;;5018172;28;20429;-82
2022/04/13 00:37:32;;;;;;;2.47;1.90;;;22.30;51.40;;;;;;5035200;28;20415;-81
2022/04/13 00:40:06;;;;;;;3.30;1.70;;;22.30;51.40;;;;;;5017878;28;20542;-81
2022/04/13 00:45:33;;;;;;;1.90;1.57;;;22.20;51.40;;;;;;5030890;28;20407;-82
2022/04/13 00:48:03;;;;;;;2.77;1.90;;;22.20;51.40;;;;;;5023141;28;20422;-82
2022/04/13 00:50:40;;;;;;;1.83;1.60;;;22.20;51.40;;;;;;5020834;28;20459;-82
2022/04/13 00:53:12;;;;;;;2.03;1.60;;;22.20;51.40;;;;;;5037130;28;20427;-82
2022/04/13 00:55:43;;;;;;;2.40;1.70;;;22.20;51.40;;;;;;5003653;28;20406;-82
2022/04/13 00:58:20;;;;;;;3.40;1.60;;;22.20;51.40;;;;;;5012103;28;20425;-81
2022/04/13 01:01:11;;;;;;;3.03;1.70;;;22.20;51.40;;;;;;5020968;28;20427;-81
2022/04/13 01:03:45;;;;;;;2.30;1.50;;;22.20;51.40;;;;;;5019173;28;20420;-82
2022/04/13 01:06:18;;;;;;;2.20;1.60;;;22.20;51.40;;;;;;5002758;28;20442;-81
2022/04/13 01:09:00;;;;;;;2.00;1.40;;;22.20;51.40;;;;;;5021320;28;20422;-81
2022/04/13 01:12:00;;;;;;;2.27;1.57;;;22.20;51.40;;;;;;5005611;28;20522;-81
2022/04/13 01:14:26;;;;;;;1.60;1.40;;;22.20;51.40;;;;;;5017763;28;20477;-82
2022/04/13 01:16:52;;;;;;;1.93;1.57;;;22.20;51.40;;;;;;5018195;28;20416;-82
2022/04/13 01:19:18;;;;;;;2.20;1.63;;;22.20;51.40;;;;;;5015943;28;20419;-81
2022/04/13 01:21:52;;;;;;;2.00;1.43;;;22.20;51.40;;;;;;5015498;28;20446;-81
2022/04/13 01:24:50;;;;;;;3.30;1.40;;;22.20;51.40;;;;;;4997917;28;20408;-81
2022/04/13 01:27:17;;;;;;;1.80;1.30;;;22.20;51.40;;;;;;5014122;28;20412;-81
2022/04/13 01:29:44;;;;;;;1.77;1.30;;;22.20;51.40;;;;;;4996963;28;20464;-80
2022/04/13 01:32:11;;;;;;;2.20;1.53;;;22.20;51.40;;;;;;4997030;28;20926;-81
2022/04/13 01:34:37;;;;;;;1.93;1.27;;;22.20;51.40;;;;;;5013026;28;20423;-81
2022/04/13 01:37:04;;;;;;;1.93;1.50;;;22.20;51.40;;;;;;5014397;28;20411;-81
2022/04/13 01:39:30;;;;;;;2.33;1.30;;;22.20;51.40;;;;;;5013679;28;20555;-81
2022/04/13 01:41:56;;;;;;;2.83;1.63;;;22.20;51.40;;;;;;5014116;28;20412;-81
2022/04/13 01:44:23;;;;;;;2.53;2.10;;;22.20;51.40;;;;;;4996939;28;20415;-81
2022/04/13 01:46:49;;;;;;;2.47;1.50;;;22.20;51.40;;;;;;4998299;28;20431;-80
2022/04/13 01:49:15;;;;;;;1.80;1.23;;;22.20;51.40;;;;;;5015219;28;20416;-81
2022/04/13 01:51:45;;;;;;;2.53;1.60;;;22.20;51.40;;;;;;5014124;28;20837;-81
2022/04/13 01:54:16;;;;;;;2.20;1.77;;;22.20;51.40;;;;;;5015131;28;20396;-81
2022/04/13 01:56:43;;;;;;;2.10;1.53;;;22.20;51.40;;;;;;5014197;28;20419;-80
2022/04/13 01:59:13;;;;;;;2.07;1.60;;;22.20;51.40;;;;;;4998182;28;20426;-81
2022/04/13 02:01:46;;;;;;;2.63;1.50;;;22.20;51.40;;;;;;4997404;28;20424;-81
2022/04/13 02:04:20;;;;;;;1.83;1.60;;;22.20;51.40;;;;;;4997798;28;20412;-80
2022/04/13 02:06:51;;;;;;;1.43;1.00;;;22.20;51.40;;;;;;5012022;28;20462;-82
2022/04/13 02:09:21;;;;;;;1.90;1.60;;;22.20;51.40;;;;;;4997209;28;20428;-81
2022/04/13 02:11:48;;;;;;;2.43;1.80;;;22.20;51.40;;;;;;4999130;28;20428;-82
2022/04/13 02:14:14;;;;;;;1.93;1.37;;;22.20;51.40;;;;;;4999323;28;20523;-81
2022/04/13 02:16:44;;;;;;;2.00;1.30;;;22.20;51.50;;;;;;4998071;28;20486;-81
2022/04/13 02:19:12;;;;;;;2.30;1.60;;;22.20;51.40;;;;;;5015028;28;20416;-82
2022/04/13 02:21:39;;;;;;;2.30;1.30;;;22.20;51.40;;;;;;5015697;28;20411;-82
2022/04/13 02:24:06;;;;;;;2.10;1.50;;;22.20;51.40;;;;;;5016234;28;20408;-81
2022/04/13 02:26:32;;;;;;;2.80;1.27;;;22.20;51.40;;;;;;5014857;28;20493;-81
2022/04/13 02:28:59;;;;;;;2.17;1.50;;;22.20;51.40;;;;;;5015445;28;20424;-81
2022/04/13 02:31:24;;;;;;;2.17;1.40;;;22.20;51.40;;;;;;4997684;28;20467;-83
2022/04/13 02:33:55;;;;;;;2.00;1.20;;;22.20;51.40;;;;;;5015103;28;20435;-80
2022/04/13 02:36:21;;;;;;;1.60;1.37;;;22.20;51.40;;;;;;5015256;28;20498;-80
2022/04/13 02:38:47;;;;;;;2.20;1.57;;;22.20;51.40;;;;;;5017857;28;20416;-81
2022/04/13 02:41:13;;;;;;;1.60;1.40;;;22.20;51.40;;;;;;5018463;28;20408;-81
2022/04/13 02:47:01;;;;;;;2.00;1.40;;;22.20;51.50;;;;;;5018027;28;20635;-81
2022/04/13 02:49:27;;;;;;;2.13;1.50;;;22.20;51.50;;;;;;5017361;28;20420;-81
2022/04/13 02:51:53;;;;;;;2.33;1.53;;;22.10;51.50;;;;;;5017915;28;20480;-81
2022/04/13 02:54:21;;;;;;;1.70;1.40;;;22.10;51.40;;;;;;5017505;28;20247;-81
2022/04/13 02:56:47;;;;;;;1.53;1.13;;;22.20;51.50;;;;;;5000472;28;20503;-80
2022/04/13 02:59:15;;;;;;;2.10;1.20;;;22.20;51.50;;;;;;5018091;28;20415;-80
2022/04/13 03:01:43;;;;;;;1.63;1.20;;;22.20;51.50;;;;;;4998749;28;20180;-81
2022/04/13 03:04:09;;;;;;;2.67;1.57;;;22.20;51.50;;;;;;5019650;28;20404;-82
2022/04/13 03:06:35;;;;;;;2.40;1.23;;;22.20;51.50;;;;;;5003362;28;20444;-82
2022/04/13 03:09:03;;;;;;;1.70;1.43;;;22.20;51.50;;;;;;5003334;28;20432;-82
2022/04/13 03:11:34;;;;;;;1.87;1.70;;;22.20;51.50;;;;;;5019929;28;20524;-81
2022/04/13 03:14:00;;;;;;;1.90;1.30;;;22.20;51.50;;;;;;5002758;28;20408;-81
2022/04/13 03:16:26;;;;;;;2.70;1.60;;;22.20;51.50;;;;;;5002054;28;20440;-81
2022/04/13 03:18:55;;;;;;;3.13;1.53;;;22.10;51.40;;;;;;5017813;28;20176;-81
2022/04/13 03:21:21;;;;;;;1.43;1.10;;;22.20;51.50;;;;;;5017888;28;20180;-81
2022/04/13 03:23:46;;;;;;;1.30;1.10;;;22.20;51.50;;;;;;5017922;28;20408;-82
2022/04/13 03:26:12;;;;;;;1.77;1.20;;;22.10;51.40;;;;;;5001113;28;20176;-81
2022/04/13 03:28:38;;;;;;;1.60;1.17;;;22.10;51.40;;;;;;5018004;28;20177;-82
2022/04/13 03:31:04;;;;;;;1.30;1.10;;;22.10;51.40;;;;;;5018084;28;20205;-82
2022/04/13 03:33:30;;;;;;;2.23;1.20;;;22.20;51.50;;;;;;5018846;28;20213;-82
2022/04/13 03:35:55;;;;;;;2.10;1.20;;;22.20;51.50;;;;;;5001590;28;20181;-82
2022/04/13 03:38:30;;;;;;;2.40;1.80;;;22.10;51.40;;;;;;5002218;28;20428;-82
2022/04/13 03:40:56;;;;;;;1.43;1.03;;;22.20;51.50;;;;;;5018800;28;20168;-82
2022/04/13 03:43:21;;;;;;;1.90;1.70;;;22.20;51.50;;;;;;5018291;28;20465;-82
2022/04/13 03:45:47;;;;;;;1.60;1.27;;;22.10;51.40;;;;;;5018483;28;20177;-82
2022/04/13 03:48:13;;;;;;;1.53;1.20;;;22.20;51.50;;;;;;5019230;28;20180;-82
2022/04/13 03:50:39;;;;;;;1.80;1.50;;;22.10;51.40;;;;;;5018598;28;20201;-81
2022/04/13 03:53:05;;;;;;;1.77;1.40;;;22.10;51.40;;;;;;5000041;28;20181;-81
2022/04/13 03:55:30;;;;;;;2.07;1.40;;;22.10;51.50;;;;;;5014953;28;20173;-81
2022/04/13 03:57:56;;;;;;;1.87;1.43;;;22.10;51.40;;;;;;5017658;28;20237;-82
2022/04/13 04:00:22;;;;;;;1.83;1.30;;;22.10;51.40;;;;;;5018297;28;20169;-81
2022/04/13 04:02:48;;;;;;;2.17;1.40;;;22.10;51.40;;;;;;5015117;28;20180;-81
2022/04/13 04:05:14;;;;;;;2.00;1.40;;;22.10;51.40;;;;;;5017197;28;20471;-82
2022/04/13 04:07:40;;;;;;;1.67;1.30;;;22.20;51.50;;;;;;5018512;28;20189;-82
2022/04/13 04:10:07;;;;;;;2.13;1.20;;;22.10;51.40;;;;;;5018191;28;20736;-82
2022/04/13 04:12:40;;;;;;;1.40;1.10;;;22.10;51.40;;;;;;5001411;28;20400;-82
2022/04/13 04:15:11;;;;;;;1.90;1.33;;;22.10;51.40;;;;;;5001271;28;20491;-82
2022/04/13 04:17:37;;;;;;;1.90;1.40;;;22.10;51.40;;;;;;5019133;28;20402;-82
2022/04/13 04:20:04;;;;;;;2.10;1.30;;;22.10;51.50;;;;;;5017973;28;20416;-81
2022/04/13 04:22:30;;;;;;;1.67;1.30;;;22.10;51.50;;;;;;5017274;28;20463;-81
2022/04/13 04:25:01;;;;;;;2.50;1.47;;;22.10;51.50;;;;;;5017714;28;20420;-82
2022/04/13 04:27:27;;;;;;;1.33;1.07;;;22.10;51.50;;;;;;5001130;28;20180;-82
2022/04/13 04:29:53;;;;;;;1.87;1.20;;;22.10;51.50;;;;;;5017922;28;20455;-82
2022/04/13 04:32:19;;;;;;;1.90;1.40;;;22.10;51.50;;;;;;5018652;28;20173;-82
2022/04/13 04:34:44;;;;;;;3.10;1.60;;;22.10;51.50;;;;;;5019399;28;20173;-82
2022/04/13 04:37:10;;;;;;;1.70;1.10;;;22.10;51.50;;;;;;5017995;28;20176;-82
2022/04/13 04:39:36;;;;;;;2.20;1.30;;;22.10;51.50;;;;;;5018663;28;20223;-81
2022/04/13 04:42:04;;;;;;;2.07;1.40;;;22.10;51.50;;;;;;5001956;28;20157;-82
2022/04/13 04:44:30;;;;;;;1.90;1.10;;;22.10;51.50;;;;;;5000693;28;20173;-82
2022/04/13 04:46:56;;;;;;;1.77;1.30;;;22.10;51.50;;;;;;5001963;28;20424;-82
2022/04/13 04:49:21;;;;;;;2.47;1.43;;;22.10;51.50;;;;;;5018742;28;20412;-82
2022/04/13 04:51:47;;;;;;;2.90;1.43;;;22.10;51.50;;;;;;5000927;28;20209;-82
2022/04/13 04:54:13;;;;;;;1.70;1.30;;;22.10;51.50;;;;;;5018491;28;20177;-80
2022/04/13 04:56:39;;;;;;;1.77;1.07;;;22.10;51.50;;;;;;5018511;28;20177;-80
2022/04/13 04:59:05;;;;;;;1.70;1.07;;;22.10;51.50;;;;;;5000236;28;20158;-81
2022/04/13 05:01:30;;;;;;;2.10;1.13;;;22.10;51.50;;;;;;5000149;28;20424;-81
2022/04/13 05:03:56;;;;;;;1.67;1.10;;;22.20;51.60;;;;;;5017104;28;20404;-81
2022/04/13 05:06:25;;;;;;;2.67;1.47;;;22.20;51.50;;;;;;5016896;28;20193;-81
2022/04/13 05:08:55;;;;;;;2.53;1.43;;;22.20;51.60;;;;;;5016620;28;20196;-81
2022/04/13 05:11:24;;;;;;;2.40;1.30;;;22.20;51.50;;;;;;5016208;28;20456;-81
2022/04/13 05:13:50;;;;;;;1.97;1.47;;;22.20;51.50;;;;;;5000053;28;20407;-82
2022/04/13 05:16:18;;;;;;;1.43;1.27;;;22.20;51.50;;;;;;4999714;28;20438;-82
2022/04/13 05:18:47;;;;;;;1.40;1.07;;;22.20;51.50;;;;;;5016951;28;20412;-82
2022/04/13 05:21:14;;;;;;;1.53;1.03;;;22.20;51.50;;;;;;4999803;28;20512;-81
2022/04/13 05:23:43;;;;;;;1.50;1.20;;;22.20;51.50;;;;;;5016899;28;20435;-82
2022/04/13 05:26:10;;;;;;;1.30;1.03;;;22.20;51.50;;;;;;5017161;28;20423;-81
2022/04/13 05:28:37;;;;;;;1.40;1.20;;;22.20;51.50;;;;;;5017118;28;20423;-82
2022/04/13 05:31:05;;;;;;;1.97;1.13;;;22.20;51.50;;;;;;5016680;28;20463;-82
2022/04/13 05:33:31;;;;;;;1.40;1.20;;;22.20;51.50;;;;;;4999799;28;20444;-82
2022/04/13 05:35:57;;;;;;;2.83;1.47;;;22.20;51.50;;;;;;5015557;28;20479;-84
2022/04/13 05:38:22;;;;;;;2.00;1.13;;;22.20;52.00;;;;;;5016492;28;20184;-81
2022/04/13 05:40:48;;;;;;;1.70;1.23;;;22.20;51.50;;;;;;5016651;28;20431;-82
2022/04/13 05:43:14;;;;;;;1.40;1.00;;;22.20;51.50;;;;;;5015891;28;20504;-83
2022/04/13 05:45:42;;;;;;;1.60;1.13;;;22.20;51.50;;;;;;5015961;28;20165;-81
2022/04/13 05:48:10;;;;;;;1.83;1.30;;;22.20;51.50;;;;;;5016573;28;20232;-82
2022/04/13 05:50:36;;;;;;;1.43;1.20;;;22.20;51.40;;;;;;5015553;28;20539;-82
2022/04/13 05:53:02;;;;;;;1.50;1.37;;;22.20;51.50;;;;;;5016013;28;20420;-80
2022/04/13 05:55:28;;;;;;;1.40;1.10;;;22.30;51.50;;;;;;5016522;28;20159;-81
2022/04/13 05:57:54;;;;;;;3.13;1.37;;;22.20;51.40;;;;;;4999011;28;20419;-82
2022/04/13 06:00:20;;;;;;;2.27;1.10;;;22.30;51.50;;;;;;5015275;28;20404;-81
2022/04/13 06:02:46;;;;;;;2.23;1.57;;;22.20;51.40;;;;;;5015127;28;20188;-82
2022/04/13 06:05:14;;;;;;;1.20;0.93;;;22.30;51.60;;;;;;5000117;28;20196;-82
2022/04/13 06:07:50;;;;;;;1.67;1.53;;;22.30;51.50;;;;;;4996347;28;20452;-82
2022/04/13 06:10:19;;;;;;;4.70;1.10;;;22.30;51.50;;;;;;4994324;28;20470;-82
2022/04/13 06:12:47;;;;;;;2.70;1.53;;;22.30;51.50;;;;;;5012785;28;20408;-82
2022/04/13 06:15:13;;;;;;;1.97;1.30;;;22.30;52.10;;;;;;5012086;28;20466;-82
2022/04/13 06:17:39;;;;;;;2.30;1.50;;;22.30;51.50;;;;;;5014191;28;20388;-82
2022/04/13 06:20:08;;;;;;;1.67;1.10;;;22.30;51.50;;;;;;5014978;28;20220;-82
2022/04/13 06:22:39;;;;;;;2.73;1.43;;;22.30;51.50;;;;;;5014301;28;20428;-82
2022/04/13 06:25:05;;;;;;;1.47;1.37;;;22.30;51.50;;;;;;4997562;28;20836;-81
2022/04/13 06:27:31;;;;;;;2.17;1.20;;;22.30;51.50;;;;;;5015081;28;20408;-81
2022/04/13 06:29:57;;;;;;;3.30;1.47;;;22.30;51.50;;;;;;4996229;28;20483;-81
2022/04/13 06:32:32;;;;;;;1.83;1.43;;;22.30;51.50;;;;;;5014217;28;20404;-81
2022/04/13 06:35:01;;;;;;;1.83;1.50;;;22.30;51.50;;;;;;5015306;28;20164;-81
2022/04/13 06:37:27;;;;;;;2.27;1.93;;;22.30;51.50;;;;;;5015656;28;20796;-80
2022/04/13 06:39:53;;;;;;;1.40;1.20;;;22.30;51.50;;;;;;5032893;28;20411;-80
2022/04/13 06:42:23;;;;;;;2.60;1.57;;;22.30;52.00;;;;;;5031276;28;20894;-80
2022/04/13 06:44:52;;;;;;;2.73;1.70;;;22.30;51.50;;;;;;5033404;28;20403;-81
2022/04/13 06:47:20;;;;;;;1.73;1.53;;;22.30;51.50;;;;;;5015033;28;20418;-81
2022/04/13 06:49:47;;;;;;;2.30;1.40;;;22.30;52.00;;;;;;5015129;28;20447;-82
2022/04/13 06:52:13;;;;;;;2.23;1.57;;;22.30;51.50;;;;;;5014863;28;20522;-82
2022/04/13 06:54:40;;;;;;;2.80;1.43;;;22.40;51.50;;;;;;5032584;28;20491;-83
2022/04/13 06:57:06;;;;;;;2.00;1.60;;;22.40;51.50;;;;;;5015120;28;20443;-83
2022/04/13 06:59:32;;;;;;;1.63;1.30;;;22.40;51.50;;;;;;5032602;28;20419;-82
2022/04/13 07:02:00;;;;;;;3.27;2.10;;;22.40;51.50;;;;;;5015033;28;20283;-80
2022/04/13 07:04:27;;;;;;;2.07;1.63;;;22.40;51.50;;;;;;5016046;28;20180;-80
2022/04/13 07:06:55;;;;;;;2.20;1.80;;;22.40;51.50;;;;;;4999661;28;20526;-80
2022/04/13 07:09:23;;;;;;;1.77;1.40;;;22.40;51.50;;;;;;5031908;28;20424;-80
2022/04/13 07:11:49;;;;;;;2.10;1.57;;;22.40;51.50;;;;;;5032458;28;20473;-80
2022/04/13 07:14:15;;;;;;;1.77;1.40;;;22.40;51.50;;;;;;5031811;28;20407;-80
2022/04/13 07:16:41;;;;;;;5.67;1.80;;;22.40;51.50;;;;;;5032660;28;20196;-80
2022/04/13 07:19:06;;;;;;;2.33;1.70;;;22.40;51.50;;;;;;5017348;28;20319;-80
2022/04/13 07:21:32;;;;;;;2.10;1.53;;;22.40;51.50;;;;;;5032819;28;20422;-80
2022/04/13 07:23:58;;;;;;;2.00;1.67;;;22.40;51.60;;;;;;5034430;28;20169;-81
2022/04/13 07:26:24;;;;;;;4.03;1.53;;;22.40;52.20;;;;;;5036812;28;20180;-81
2022/04/13 07:28:53;;;;;;;1.97;1.67;;;22.40;51.60;;;;;;5037872;28;20165;-81
2022/04/13 07:31:19;;;;;;;3.57;1.80;;;22.40;51.70;;;;;;5037466;28;20211;-81
2022/04/13 07:33:45;;;;;;;1.63;1.43;;;22.40;52.20;;;;;;5038108;28;20407;-81
2022/04/13 07:36:12;;;;;;;1.50;1.23;;;22.50;51.80;;;;;;5035993;28;20172;-80
2022/04/13 07:38:40;;;;;;;2.33;1.70;;;22.50;51.80;;;;;;5018298;28;20462;-82
2022/04/13 07:41:09;;;;;;;2.80;1.63;;;22.50;51.80;;;;;;5035631;28;20403;-81
2022/04/13 07:43:34;;;;;;;1.90;1.50;;;22.50;51.80;;;;;;5019240;28;20609;-81
2022/04/13 07:46:00;;;;;;;3.57;1.80;;;22.50;51.80;;;;;;5035559;28;20415;-80
2022/04/13 07:48:29;;;;;;;1.80;1.53;;;22.50;51.80;;;;;;5018093;28;20216;-81
2022/04/13 07:50:57;;;;;;;1.90;1.70;;;22.50;51.90;;;;;;5018151;28;20196;-81
2022/04/13 07:53:23;;;;;;;1.73;1.50;;;22.50;51.90;;;;;;5018411;28;20416;-81
2022/04/13 07:55:49;;;;;;;2.50;1.60;;;22.50;51.90;;;;;;5035315;28;20407;-82
2022/04/13 07:58:18;;;;;;;3.40;1.63;;;22.50;51.90;;;;;;5035876;28;20191;-82
2022/04/13 08:00:43;;;;;;;2.53;1.80;;;22.50;51.90;;;;;;5018017;28;20184;-81
2022/04/13 08:03:11;;;;;;;2.20;1.40;;;22.50;51.90;;;;;;5035483;28;20427;-81
2022/04/13 08:05:38;;;;;;;1.97;1.40;;;22.50;51.90;;;;;;5035499;28;20183;-81
2022/04/13 08:08:04;;;;;;;1.90;1.70;;;22.60;52.00;;;;;;5018407;28;20396;-81
2022/04/13 08:10:30;;;;;;;3.13;1.73;;;22.60;52.00;;;;;;5035575;28;20458;-81
2022/04/13 08:12:56;;;;;;;2.70;2.23;;;22.60;52.00;;;;;;5035268;28;20419;-81
2022/04/13 08:15:24;;;;;;;2.87;1.80;;;22.60;52.00;;;;;;5019076;28;20189;-81
2022/04/13 08:17:53;;;;;;;2.20;2.00;;;22.60;52.00;;;;;;5037078;28;20216;-81
2022/04/13 08:20:21;;;;;;;3.07;1.80;;;22.60;52.00;;;;;;5036366;28;20426;-81
2022/04/13 08:22:48;;;;;;;2.80;1.70;;;22.60;52.00;;;;;;5036756;28;20477;-81
2022/04/13 08:25:15;;;;;;;3.37;1.90;;;22.60;52.00;;;;;;5036897;28;20411;-81
2022/04/13 08:27:41;;;;;;;2.53;2.17;;;22.60;52.00;;;;;;5018511;28;20434;-81
2022/04/13 08:30:14;;;;;;;2.13;1.80;;;22.60;52.10;;;;;;5019206;28;20451;-81
2022/04/13 08:32:42;;;;;;;3.90;1.77;;;22.70;52.10;;;;;;5020245;28;20442;-81
2022/04/13 08:35:13;;;;;;;2.50;1.90;;;22.70;52.10;;;;;;5035989;28;20415;-81
2022/04/13 08:37:41;;;;;;;1.57;1.37;;;22.70;52.10;;;;;;5033827;28;20416;-83
2022/04/13 08:40:11;;;;;;;3.43;2.03;;;22.70;52.10;;;;;;5018193;28;20430;-81
2022/04/13 08:43:12;;;;;;;2.23;1.53;;;22.70;52.10;;;;;;5034312;28;20423;-82
2022/04/13 08:45:50;;;;;;;3.93;2.30;;;22.70;52.10;;;;;;5031276;28;20415;-82
2022/04/13 08:48:22;;;;;;;4.40;2.00;;;22.70;52.20;;;;;;5014941;28;20430;-82
2022/04/13 08:57:11;;;;;;;3.97;2.00;;;22.70;52.20;;;;;;4951136;29;20426;-81
2022/04/13 09:00:05;;;;;;;3.70;2.20;;;22.70;52.20;;;;;;4934843;29;20423;-81
2022/04/13 09:03:15;;;;;;;3.10;1.80;;;22.70;52.20;;;;;;4932606;29;20424;-81
2022/04/13 09:05:55;;;;;;;2.73;2.20;;;22.70;52.20;;;;;;4946397;29;20418;-81
2022/04/13 09:08:34;;;;;;;2.90;1.80;;;22.70;52.30;;;;;;4947496;29;20422;-81
2022/04/13 09:11:01;;;;;;;3.87;2.10;;;22.70;52.30;;;;;;4953509;29;20458;-80
2022/04/13 09:13:32;;;;;;;2.73;2.07;;;22.70;52.20;;;;;;4940800;29;20434;-81
2022/04/13 09:15:58;;;;;;;2.80;2.10;;;22.70;52.20;;;;;;4924211;29;20426;-80
2022/04/13 09:18:24;;;;;;;2.60;1.90;;;22.70;52.20;;;;;;4929759;29;20420;-81
2022/04/13 09:20:51;;;;;;;3.67;2.47;;;22.70;52.20;;;;;;4939628;29;20430;-81
2022/04/13 09:23:31;;;;;;;2.43;1.80;;;22.70;52.20;;;;;;4956180;29;20423;-81
2022/04/13 09:25:58;;;;;;;2.83;2.07;;;22.70;52.20;;;;;;4953811;29;20427;-80
2022/04/13 09:28:26;;;;;;;2.77;1.90;;;22.70;52.20;;;;;;4939908;29;20427;-81
2022/04/13 09:30:54;;;;;;;2.77;1.93;;;22.80;52.20;;;;;;4951672;29;20822;-81
2022/04/13 09:33:20;;;;;;;2.87;2.10;;;22.80;52.20;;;;;;4933401;29;20427;-81
2022/04/13 09:35:47;;;;;;;4.77;2.03;;;22.80;52.20;;;;;;4943729;29;20456;-80
2022/04/13 09:38:23;;;;;;;2.87;2.03;;;22.80;52.20;;;;;;4952772;29;20478;-80
2022/04/13 09:40:52;;;;;;;3.03;1.83;;;22.80;52.30;;;;;;4920458;29;20519;-81
2022/04/13 09:43:24;;;;;;;5.10;2.40;;;22.80;52.20;;;;;;4965933;28;20439;-81
2022/04/13 09:45:57;;;;;;;4.23;2.47;;;22.80;52.20;;;;;;5013193;28;20451;-80
2022/04/13 09:48:23;;;;;;;5.80;2.80;;;22.80;52.20;;;;;;4999014;28;20449;-80
2022/04/13 09:50:56;;;;;;;3.50;2.50;;;22.80;52.30;;;;;;5015470;28;20451;-81
2022/04/13 09:53:22;;;;;;;2.70;2.03;;;22.80;52.30;;;;;;5016444;28;20435;-81
2022/04/13 09:55:55;;;;;;;4.27;2.67;;;22.80;52.20;;;;;;5032724;28;20423;-81
2022/04/13 09:58:25;;;;;;;3.40;1.80;;;22.80;52.20;;;;;;5032270;28;20419;-81
2022/04/13 10:00:55;;;;;;;5.33;2.40;;;22.80;52.20;;;;;;5015904;28;20424;-82
2022/04/13 10:03:25;;;;;;;3.33;2.03;;;22.80;52.20;;;;;;5017175;28;20407;-82
2022/04/13 10:05:52;;;;;;;3.20;1.90;;;22.80;52.20;;;;;;5017167;28;20473;-82
2022/04/13 10:08:24;;;;;;;4.37;1.90;;;22.80;52.20;;;;;;5032809;28;20458;-81
2022/04/13 10:10:58;;;;;;;3.33;1.87;;;22.80;52.20;;;;;;5034329;28;20477;-82
2022/04/13 10:13:40;;;;;;;3.60;1.97;;;22.80;52.20;;;;;;5000836;28;20427;-82
2022/04/13 10:16:12;;;;;;;4.60;2.40;;;22.90;52.30;;;;;;5016163;28;20479;-82
2022/04/13 10:19:15;;;;;;;5.27;2.20;;;22.80;52.20;;;;;;5013031;28;20391;-82
2022/04/13 10:21:53;;;;;;;3.57;2.17;;;22.90;52.30;;;;;;4934637;29;20431;-82
2022/04/13 10:24:28;;;;;;;3.77;2.43;;;22.90;52.30;;;;;;4927836;29;20427;-82
2022/04/13 10:27:09;;;;;;;2.97;1.90;;;22.80;52.30;;;;;;4922082;29;20432;-82
2022/04/13 10:29:37;;;;;;;3.17;2.67;;;22.90;52.30;;;;;;4933842;29;20432;-82
2022/04/13 10:32:11;;;;;;;3.67;2.03;;;22.90;52.30;;;;;;4933940;29;20426;-82
2022/04/13 10:34:42;;;;;;;5.00;2.70;;;22.90;52.30;;;;;;4910984;29;20818;-82
2022/04/13 10:37:09;;;;;;;3.10;2.13;;;22.90;52.30;;;;;;4914591;29;20780;-82
2022/04/13 10:39:39;;;;;;;4.60;2.20;;;22.90;52.30;;;;;;4929949;29;20529;-82
2022/04/13 10:42:07;;;;;;;4.53;2.30;;;22.90;52.40;;;;;;4922549;29;20427;-82
2022/04/13 10:44:36;;;;;;;4.10;1.87;;;22.90;52.30;;;;;;4918194;29;20475;-82
2022/04/13 10:47:07;;;;;;;4.10;1.70;;;22.90;52.30;;;;;;4928113;29;20447;-82
2022/04/13 10:49:54;;;;;;;5.10;2.03;;;22.90;52.30;;;;;;4925287;29;20420;-82
2022/04/13 10:52:45;;;;;;;4.07;2.20;;;22.90;52.20;;;;;;4930833;29;20412;-81
2022/04/13 10:55:16;;;;;;;4.50;2.13;;;22.90;52.20;;;;;;4928386;29;20416;-81
2022/04/13 10:57:47;;;;;;;3.37;2.10;;;22.90;52.20;;;;;;4940663;28;20432;-81
2022/04/13 11:00:17;;;;;;;4.13;1.77;;;22.90;52.20;;;;;;5032701;28;20423;-81
2022/04/13 11:02:50;;;;;;;1.80;1.50;;;22.90;52.20;;;;;;5023160;28;20430;-81
2022/04/13 11:05:17;;;;;;;4.03;1.97;;;22.90;52.20;;;;;;5034170;28;20443;-81
2022/04/13 11:07:43;;;;;;;4.17;2.13;;;22.90;52.20;;;;;;5036583;28;20461;-82
2022/04/13 11:10:18;;;;;;;3.47;2.00;;;22.90;52.20;;;;;;5019775;28;20458;-82
2022/04/13 11:12:45;;;;;;;2.43;2.23;;;22.90;52.20;;;;;;4998924;28;20419;-81
2022/04/13 11:15:13;;;;;;;3.23;2.10;;;22.90;52.20;;;;;;5002234;28;20419;-81
2022/04/13 11:17:43;;;;;;;4.03;2.00;;;22.90;52.20;;;;;;5036408;28;20399;-81
2022/04/13 11:20:27;;;;;;;4.20;2.23;;;22.90;52.20;;;;;;5034814;28;20426;-82
2022/04/13 11:23:12;;;;;;;5.90;2.60;;;22.90;52.20;;;;;;5029144;28;20427;-83
2022/04/13 11:25:51;;;;;;;5.53;2.70;;;22.90;52.20;;;;;;5015249;28;20415;-81
2022/04/13 11:28:28;;;;;;;4.43;2.90;;;22.90;52.20;;;;;;5017053;28;20414;-81
2022/04/13 11:31:11;;;;;;;6.73;3.40;;;22.90;52.20;;;;;;4998472;28;20730;-81
2022/04/13 11:33:50;;;;;;;11.63;4.63;;;22.90;52.20;;;;;;5032540;28;20403;-81
2022/04/13 11:36:18;;;;;;;8.80;3.73;;;22.90;52.20;;;;;;5015016;28;20412;-81
2022/04/13 11:38:51;;;;;;;10.43;4.37;;;22.90;52.20;;;;;;5014739;28;20745;-81
2022/04/13 11:41:24;;;;;;;11.93;4.97;;;22.90;52.20;;;;;;5028633;28;20495;-81
2022/04/13 11:43:49;;;;;;;12.03;5.73;;;22.90;52.20;;;;;;5031970;28;20427;-84
2022/04/13 11:46:36;;;;;;;9.17;5.17;;;22.90;52.20;;;;;;5032369;28;20422;-82
2022/04/13 11:49:10;;;;;;;12.20;5.77;;;22.90;52.20;;;;;;5033121;28;20240;-82
2022/04/13 11:51:37;;;;;;;12.67;4.30;;;22.90;52.20;;;;;;5016268;28;20455;-82
2022/04/13 11:54:11;;;;;;;10.13;5.10;;;22.90;52.20;;;;;;5034610;28;20411;-82
2022/04/13 11:57:09;;;;;;;8.50;5.03;;;22.90;52.30;;;;;;5033505;28;20442;-82
2022/04/13 11:59:47;;;;;;;9.37;4.80;;;22.90;52.20;;;;;;4973786;29;20406;-82
2022/04/13 12:02:16;;;;;;;9.60;5.03;;;22.90;52.30;;;;;;4953210;29;20446;-82
2022/04/13 12:04:47;;;;;;;13.27;4.70;;;22.90;52.30;;;;;;4969810;29;20418;-82
2022/04/13 12:07:13;;;;;;;10.00;4.90;;;22.90;52.30;;;;;;4964926;29;20461;-82
2022/04/13 12:09:39;;;;;;;10.00;5.20;;;22.90;52.30;;;;;;4973787;28;20414;-81
2022/04/13 12:12:12;;;;;;;14.70;5.37;;;22.90;52.30;;;;;;4975798;29;20450;-82
2022/04/13 12:14:40;;;;;;;11.00;4.93;;;22.90;52.30;;;;;;4959979;29;20421;-82
2022/04/13 12:17:06;;;;;;;12.20;6.13;;;22.90;52.20;;;;;;4960374;29;20807;-82
2022/04/13 12:19:45;;;;;;;12.93;5.43;;;22.90;52.20;;;;;;4976276;29;20492;-81
2022/04/13 12:22:15;;;;;;;14.00;5.40;;;22.90;52.30;;;;;;4959868;28;20426;-81
2022/04/13 12:25:02;;;;;;;8.80;5.70;;;22.90;52.30;;;;;;4973514;29;20446;-81
2022/04/13 12:27:28;;;;;;;10.23;4.57;;;22.90;52.30;;;;;;4973865;29;20430;-81
2022/04/13 12:30:17;;;;;;;7.73;4.60;;;22.90;52.30;;;;;;4957357;29;20454;-81
2022/04/13 12:32:46;;;;;;;8.17;5.33;;;22.90;52.30;;;;;;4971734;29;20418;-81
2022/04/13 12:35:15;;;;;;;13.30;5.23;;;22.90;52.30;;;;;;4972470;29;20398;-81
2022/04/13 12:37:58;;;;;;;8.97;4.97;;;22.80;52.20;;;;;;5012199;28;20419;-81
2022/04/13 12:40:26;;;;;;;16.10;5.03;;;22.90;52.30;;;;;;5014471;28;20430;-81
2022/04/13 12:42:53;;;;;;;10.83;5.30;;;22.80;52.20;;;;;;5032791;28;20410;-80
2022/04/13 12:45:32;;;;;;;8.47;4.63;;;22.80;52.20;;;;;;4984924;28;20474;-82
2022/04/13 12:48:05;;;;;;;8.73;4.40;;;22.80;52.20;;;;;;5033694;28;20426;-82
2022/04/13 12:50:31;;;;;;;12.53;6.30;;;22.80;52.20;;;;;;5016944;28;20453;-82
2022/04/13 12:53:02;;;;;;;9.67;5.03;;;22.90;52.30;;;;;;5016398;28;20423;-81
2022/04/13 12:55:28;;;;;;;9.90;5.40;;;22.90;52.40;;;;;;5034079;28;20411;-81
2022/04/13 12:57:58;;;;;;;10.73;5.27;;;22.80;52.20;;;;;;5016103;28;20430;-81
2022/04/13 13:00:58;;;;;;;7.67;4.53;;;22.90;52.30;;;;;;5016902;28;20184;-81
2022/04/13 13:03:36;;;;;;;9.53;4.77;;;22.80;52.20;;;;;;5016162;28;20431;-81
2022/04/13 13:06:13;;;;;;;9.80;4.50;;;22.80;52.20;;;;;;5011529;28;20466;-81
2022/04/13 13:08:54;;;;;;;9.97;4.50;;;22.80;52.20;;;;;;5017612;28;20447;-81
2022/04/13 13:11:27;;;;;;;13.47;5.70;;;22.80;52.20;;;;;;5035460;28;20479;-82
2022/04/13 13:14:08;;;;;;;9.23;4.80;;;22.80;52.20;;;;;;5017687;28;20443;-82
2022/04/13 13:16:44;;;;;;;8.33;4.27;;;22.80;52.20;;;;;;5016015;28;20415;-82